Kt Albatross — HPDH — position and weather

sailwx.info

Track history (hours):
 
Tides and Currents Weather Stations Pressure Air Temp Water Temp Dewpoint Dewpoint Depression Visibility Wind Speed Wind Dir Waves Ship Positions

Kt Albatross

Last reported at 2014-Sep-30 22:20 UTC. Time now 2014-Oct-01 16:30 UTC.
Position S 34°46' W 057°33'.

Length 197 m; draft 10.2 m.

Type: Cargo ship. MMSI: 354794000.

Date/timePositionNaut miles runAvg speedWind from/ knotsBaromVisibWave heightAir tempDewpointWater temp
2014-Sep-30 22:20S 34°46' W 057°33'810.3
2014-Sep-30 21:33S 34°44' W 057°43'5 5.2
2014-Sep-30 20:33S 34°44' W 057°49'0 0.1
2014-Sep-30 19:33S 34°44' W 057°49'0 0.0
2014-Sep-30 18:33S 34°44' W 057°49'0 0.0
2014-Sep-30 17:33S 34°44' W 057°49'0 0.0
2014-Sep-30 16:33S 34°44' W 057°49'0 0.1
2014-Sep-30 15:33S 34°44' W 057°49'0 0.1
2014-Sep-30 14:33S 34°44' W 057°49'0 0.2
2014-Sep-30 13:33S 34°44' W 057°49'0 0.1
2014-Sep-30 12:33S 34°44' W 057°49'0 0.0
2014-Sep-30 11:33S 34°44' W 057°49'0 0.1
2014-Sep-30 10:33S 34°44' W 057°49'0 0.2
2014-Sep-30 09:33S 34°44' W 057°49'0 0.0
2014-Sep-30 08:33S 34°44' W 057°49'0 0.0
2014-Sep-30 07:33S 34°44' W 057°49'0 0.0
2014-Sep-30 06:33S 34°44' W 057°49'0 0.0
2014-Sep-30 05:33S 34°44' W 057°49'0 0.0
2014-Sep-30 04:33S 34°44' W 057°49'1 0.7
2014-Sep-30 03:33S 34°43' W 057°50'8 8.2
2014-Sep-30 02:33S 34°41' W 057°59'1211.7
2014-Sep-30 01:33S 34°37' W 058°13'1010.1
2014-Sep-30 00:33S 34°30' W 058°22'1110.3
2014-Sep-29 23:32S 34°21' W 058°28'12 9.8
2014-Sep-29 22:21S 34°15' W 058°41'10 9.9
2014-Sep-29 21:22S 34°11' W 058°51'7 8.6
2014-Sep-29 20:33S 34°08' W 058°59'7 7.2
2014-Sep-29 19:33S 34°03' W 059°04'  
Track history (hours):
 
Tides and Currents Weather Stations Pressure Air Temp Water Temp Dewpoint Dewpoint Depression Visibility Wind Speed Wind Dir Waves Ship Positions

Kt Albatross

Last reported at 2014-Sep-30 22:20 UTC. Time now 2014-Oct-01 16:30 UTC.
Position S 34°46' W 057°33'.

Length 197 m; draft 10.2 m.

Type: Cargo ship. MMSI: 354794000.

Date/timePositionNaut miles runAvg speedWind from/ knotsBaromVisibWave heightAir tempDewpointWater temp
2014-Sep-30 22:20S 34°46' W 057°33'810.3
2014-Sep-30 21:33S 34°44' W 057°43'5 5.2
2014-Sep-30 20:33S 34°44' W 057°49'0 0.1
2014-Sep-30 19:33S 34°44' W 057°49'0 0.0
2014-Sep-30 18:33S 34°44' W 057°49'0 0.0
2014-Sep-30 17:33S 34°44' W 057°49'0 0.0
2014-Sep-30 16:33S 34°44' W 057°49'0 0.1
2014-Sep-30 15:33S 34°44' W 057°49'0 0.1
2014-Sep-30 14:33S 34°44' W 057°49'0 0.2
2014-Sep-30 13:33S 34°44' W 057°49'0 0.1
2014-Sep-30 12:33S 34°44' W 057°49'0 0.0
2014-Sep-30 11:33S 34°44' W 057°49'0 0.1
2014-Sep-30 10:33S 34°44' W 057°49'0 0.2
2014-Sep-30 09:33S 34°44' W 057°49'0 0.0
2014-Sep-30 08:33S 34°44' W 057°49'0 0.0
2014-Sep-30 07:33S 34°44' W 057°49'0 0.0
2014-Sep-30 06:33S 34°44' W 057°49'0 0.0
2014-Sep-30 05:33S 34°44' W 057°49'0 0.0
2014-Sep-30 04:33S 34°44' W 057°49'1 0.7
2014-Sep-30 03:33S 34°43' W 057°50'8 8.2
2014-Sep-30 02:33S 34°41' W 057°59'1211.7
2014-Sep-30 01:33S 34°37' W 058°13'1010.1
2014-Sep-30 00:33S 34°30' W 058°22'1110.3
2014-Sep-29 23:32S 34°21' W 058°28'12 9.8
2014-Sep-29 22:21S 34°15' W 058°41'10 9.9
2014-Sep-29 21:22S 34°11' W 058°51'7 8.6
2014-Sep-29 20:33S 34°08' W 058°59'7 7.2
2014-Sep-29 19:33S 34°03' W 059°04'  

Dump ship's entire track history